Time;durP1;ratioP1;P1;durP2;ratioP2;P2;SDS_P1;SDS_P2;PMS_P1;PMS_P2;Temp;Humidity;BMP_temperature;BMP_pressure;BME280_temperature;BME280_humidity;BME280_pressure;Samples;Min_cycle;Max_cycle;Signal;HPM_P1;HPM_P2
2023/09/12 00:01:57;;;;;;;12.60;10.05;;;;;;;;;;4996973;28;20061;-69
2023/09/12 00:04:23;;;;;;;12.13;9.70;;;;;;;;;;4997154;28;20193;-69
2023/09/12 00:06:48;;;;;;;15.02;10.68;;;;;;;;;;5000776;28;20077;-74
2023/09/12 00:09:14;;;;;;;12.35;10.00;;;;;;;;;;5000828;28;20046;-69
2023/09/12 00:11:39;;;;;;;12.70;10.13;;;;;;;;;;5001303;28;20044;-69
2023/09/12 00:14:04;;;;;;;13.68;9.68;;;;;;;;;;4999883;28;20050;-69
2023/09/12 00:16:30;;;;;;;15.40;9.82;;;;;;;;;;5000687;28;20580;-69
2023/09/12 00:18:55;;;;;;;13.50;10.18;;;;;;;;;;4999688;28;20494;-69
2023/09/12 00:21:21;;;;;;;12.52;10.18;;;;;;;;;;5000959;28;20056;-69
2023/09/12 00:23:47;;;;;;;12.32;9.93;;;;;;;;;;5000953;28;20169;-69
2023/09/12 00:26:12;;;;;;;12.55;10.27;;;;;;;;;;4999727;28;20042;-69
2023/09/12 00:28:38;;;;;;;10.60;9.10;;;;;;;;;;5015592;28;20052;-69
2023/09/12 00:31:04;;;;;;;11.77;9.63;;;;;;;;;;4997836;28;20808;-70
2023/09/12 00:33:29;;;;;;;12.40;9.27;;;;;;;;;;5000798;28;20142;-69
2023/09/12 00:35:54;;;;;;;13.75;9.50;;;;;;;;;;4997809;28;20553;-70
2023/09/12 00:38:20;;;;;;;19.73;9.52;;;;;;;;;;5015813;28;20045;-70
2023/09/12 00:40:46;;;;;;;10.13;8.38;;;;;;;;;;4999080;28;20038;-70
2023/09/12 00:43:11;;;;;;;13.77;10.68;;;;;;;;;;5014422;28;20061;-70
2023/09/12 00:45:37;;;;;;;13.70;11.05;;;;;;;;;;5015164;28;20354;-70
2023/09/12 00:48:04;;;;;;;14.32;9.90;;;;;;;;;;5014027;28;20406;-70
2023/09/12 00:50:31;;;;;;;13.57;10.95;;;;;;;;;;4998637;28;20410;-70
2023/09/12 00:52:57;;;;;;;14.45;10.85;;;;;;;;;;4998071;28;20057;-70
2023/09/12 00:55:23;;;;;;;15.25;11.13;;;;;;;;;;4999227;28;20045;-70
2023/09/12 00:57:49;;;;;;;14.70;9.73;;;;;;;;;;4998738;28;20038;-69
2023/09/12 01:00:15;;;;;;;13.07;10.55;;;;;;;;;;5014801;28;20045;-70
2023/09/12 01:02:42;;;;;;;15.68;11.35;;;;;;;;;;5000205;28;20562;-70
2023/09/12 01:05:09;;;;;;;14.20;10.57;;;;;;;;;;4999233;28;20049;-70
2023/09/12 01:07:36;;;;;;;11.82;9.63;;;;;;;;;;5014352;28;20502;-70
2023/09/12 01:10:02;;;;;;;12.70;10.50;;;;;;;;;;4997994;28;20062;-69
2023/09/12 01:12:29;;;;;;;12.55;10.15;;;;;;;;;;4999375;28;20115;-70
2023/09/12 01:14:55;;;;;;;13.98;11.15;;;;;;;;;;4997501;28;20052;-70
2023/09/12 01:17:21;;;;;;;14.15;9.68;;;;;;;;;;4998971;28;20084;-70
2023/09/12 01:19:48;;;;;;;16.60;10.98;;;;;;;;;;4997960;28;20517;-70
2023/09/12 01:22:38;;;;;;;15.18;9.77;;;;;;;;;;4999247;28;20053;-70
2023/09/12 01:25:08;;;;;;;14.60;10.30;;;;;;;;;;4998053;28;20046;-70
2023/09/12 01:27:50;;;;;;;14.75;10.63;;;;;;;;;;4997198;28;20057;-70
2023/09/12 01:30:22;;;;;;;11.45;10.02;;;;;;;;;;5012159;28;21014;-70
2023/09/12 01:32:48;;;;;;;13.50;11.75;;;;;;;;;;4997070;28;20075;-70
2023/09/12 01:35:14;;;;;;;14.77;10.38;;;;;;;;;;4978937;28;20058;-69
2023/09/12 01:37:39;;;;;;;13.55;11.25;;;;;;;;;;4997621;28;20099;-69
2023/09/12 01:40:06;;;;;;;15.88;11.73;;;;;;;;;;4997814;28;20422;-69
2023/09/12 01:42:42;;;;;;;15.50;11.50;;;;;;;;;;4998673;28;20052;-69
2023/09/12 01:45:11;;;;;;;15.68;11.05;;;;;;;;;;5013009;28;21098;-69
2023/09/12 01:47:39;;;;;;;14.65;12.02;;;;;;;;;;4998797;28;20061;-69
2023/09/12 01:50:08;;;;;;;18.65;11.65;;;;;;;;;;4997584;28;20582;-69
2023/09/12 01:52:34;;;;;;;14.85;11.88;;;;;;;;;;4999393;28;20050;-69
2023/09/12 01:54:59;;;;;;;17.90;11.85;;;;;;;;;;4997800;28;20422;-69
2023/09/12 01:57:25;;;;;;;18.70;12.27;;;;;;;;;;4999388;28;20046;-69
2023/09/12 01:59:51;;;;;;;18.65;13.70;;;;;;;;;;4997225;28;20519;-70
2023/09/12 02:02:17;;;;;;;17.55;13.05;;;;;;;;;;4997542;28;21795;-70
2023/09/12 02:04:59;;;;;;;19.70;13.88;;;;;;;;;;4998196;28;20483;-70
2023/09/12 02:07:25;;;;;;;17.65;13.25;;;;;;;;;;4995949;28;20041;-70
2023/09/12 02:09:51;;;;;;;14.93;12.50;;;;;;;;;;4996723;28;20051;-70
2023/09/12 02:12:16;;;;;;;17.38;13.38;;;;;;;;;;4998678;28;20056;-70
2023/09/12 02:14:42;;;;;;;16.00;12.98;;;;;;;;;;4998926;28;20050;-70
2023/09/12 02:17:07;;;;;;;18.38;12.80;;;;;;;;;;4997584;28;20050;-70
2023/09/12 02:19:32;;;;;;;15.15;11.75;;;;;;;;;;4997337;28;20085;-70
2023/09/12 02:21:59;;;;;;;16.90;11.95;;;;;;;;;;5012492;28;20104;-70
2023/09/12 02:24:24;;;;;;;14.63;11.80;;;;;;;;;;5013568;28;20060;-70
2023/09/12 02:26:50;;;;;;;15.60;11.50;;;;;;;;;;4996681;28;20068;-72
2023/09/12 02:29:15;;;;;;;14.38;11.23;;;;;;;;;;4997095;28;20049;-70
2023/09/12 02:31:40;;;;;;;16.80;11.50;;;;;;;;;;4996375;28;20073;-70
2023/09/12 02:34:06;;;;;;;16.88;12.77;;;;;;;;;;4998105;28;20053;-68
2023/09/12 02:36:32;;;;;;;14.60;11.80;;;;;;;;;;5013418;28;20042;-68
2023/09/12 02:38:58;;;;;;;14.57;12.10;;;;;;;;;;4996215;28;20108;-69
2023/09/12 02:41:23;;;;;;;15.00;11.65;;;;;;;;;;4996228;28;20052;-69
2023/09/12 02:43:49;;;;;;;17.92;12.90;;;;;;;;;;4996295;28;20610;-69
2023/09/12 02:46:14;;;;;;;14.18;12.05;;;;;;;;;;4995827;28;20050;-69
2023/09/12 02:48:40;;;;;;;16.17;13.30;;;;;;;;;;4996396;28;20046;-70
2023/09/12 02:51:06;;;;;;;17.90;12.40;;;;;;;;;;4995050;28;20076;-70
2023/09/12 02:53:31;;;;;;;15.07;11.77;;;;;;;;;;4996367;28;20167;-70
2023/09/12 02:55:57;;;;;;;17.90;12.80;;;;;;;;;;4996128;28;20104;-70
2023/09/12 02:58:22;;;;;;;18.27;13.75;;;;;;;;;;5014020;28;20070;-70
2023/09/12 03:00:50;;;;;;;16.08;13.50;;;;;;;;;;5012221;28;20040;-70
2023/09/12 03:03:16;;;;;;;18.80;14.88;;;;;;;;;;5012077;28;20057;-70
2023/09/12 03:05:42;;;;;;;16.98;13.52;;;;;;;;;;4996213;28;20045;-70
2023/09/12 03:08:07;;;;;;;16.48;12.98;;;;;;;;;;5011718;28;20037;-70
2023/09/12 03:10:32;;;;;;;17.08;13.38;;;;;;;;;;4996727;28;20046;-70
2023/09/12 03:12:58;;;;;;;16.90;12.70;;;;;;;;;;4997079;28;20046;-70
2023/09/12 03:15:24;;;;;;;15.70;12.63;;;;;;;;;;4997119;28;20049;-70
2023/09/12 03:17:50;;;;;;;19.45;13.55;;;;;;;;;;5012805;28;20053;-70
2023/09/12 03:20:15;;;;;;;17.25;13.30;;;;;;;;;;4997043;28;20550;-70
2023/09/12 03:22:41;;;;;;;15.93;13.02;;;;;;;;;;4997988;28;20053;-70
2023/09/12 03:25:07;;;;;;;16.77;13.30;;;;;;;;;;4995585;28;20056;-69
2023/09/12 03:27:32;;;;;;;16.45;13.70;;;;;;;;;;4997302;28;20042;-70
2023/09/12 03:29:58;;;;;;;19.08;14.38;;;;;;;;;;4995499;28;20112;-70
2023/09/12 03:32:24;;;;;;;19.40;14.10;;;;;;;;;;4995599;28;20038;-69
2023/09/12 03:34:50;;;;;;;20.58;14.68;;;;;;;;;;4996407;28;20495;-71
2023/09/12 03:37:15;;;;;;;17.95;14.15;;;;;;;;;;4994322;28;20048;-70
2023/09/12 03:39:41;;;;;;;21.02;14.10;;;;;;;;;;4980940;28;20042;-70
2023/09/12 03:42:06;;;;;;;17.63;14.70;;;;;;;;;;5000590;28;20049;-69
2023/09/12 03:44:32;;;;;;;18.98;14.20;;;;;;;;;;5016219;28;20056;-69
2023/09/12 03:46:58;;;;;;;18.10;13.57;;;;;;;;;;4999454;28;20042;-70
2023/09/12 03:49:24;;;;;;;17.55;13.75;;;;;;;;;;4995369;28;20775;-70
2023/09/12 03:51:49;;;;;;;16.13;13.40;;;;;;;;;;4981992;28;20046;-69
2023/09/12 03:54:14;;;;;;;20.40;14.18;;;;;;;;;;4998550;28;20050;-69
2023/09/12 03:56:40;;;;;;;18.15;14.20;;;;;;;;;;5016229;28;20042;-69
2023/09/12 03:59:06;;;;;;;19.30;14.85;;;;;;;;;;5011937;28;20042;-70
2023/09/12 04:01:32;;;;;;;20.20;14.50;;;;;;;;;;5000284;28;20088;-70
2023/09/12 04:03:58;;;;;;;18.92;13.90;;;;;;;;;;4999046;28;20114;-70
2023/09/12 04:06:24;;;;;;;17.95;13.25;;;;;;;;;;4998747;28;20544;-70
2023/09/12 04:08:50;;;;;;;18.98;13.98;;;;;;;;;;4998425;28;20073;-70
2023/09/12 04:11:20;;;;;;;19.42;14.75;;;;;;;;;;4993808;28;20092;-71
2023/09/12 04:13:49;;;;;;;21.60;14.23;;;;;;;;;;5006832;28;21050;-70
2023/09/12 04:16:14;;;;;;;17.13;13.35;;;;;;;;;;5006448;28;20049;-71
2023/09/12 04:18:40;;;;;;;19.10;14.30;;;;;;;;;;4995335;28;20048;-71
2023/09/12 04:21:06;;;;;;;19.42;14.95;;;;;;;;;;4973091;28;20052;-71
2023/09/12 04:23:41;;;;;;;22.23;14.48;;;;;;;;;;4970690;28;20056;-71
2023/09/12 04:26:07;;;;;;;22.60;15.40;;;;;;;;;;4971355;28;20045;-71
2023/09/12 04:28:46;;;;;;;21.08;15.20;;;;;;;;;;4970646;28;20497;-70
2023/09/12 04:31:11;;;;;;;18.70;14.65;;;;;;;;;;4968339;28;20237;-71
2023/09/12 04:33:39;;;;;;;20.13;15.07;;;;;;;;;;4970793;28;20061;-70
2023/09/12 04:36:08;;;;;;;22.40;15.88;;;;;;;;;;4978178;28;20050;-70
2023/09/12 04:38:39;;;;;;;26.50;16.92;;;;;;;;;;4972853;28;20045;-70
2023/09/12 04:41:08;;;;;;;21.58;15.88;;;;;;;;;;4973430;28;20030;-70
2023/09/12 04:43:37;;;;;;;22.33;15.40;;;;;;;;;;4957953;28;20077;-70
2023/09/12 04:46:03;;;;;;;21.75;16.63;;;;;;;;;;4958874;28;20518;-70
2023/09/12 04:48:31;;;;;;;23.42;16.23;;;;;;;;;;4985086;28;20341;-70
2023/09/12 04:51:20;;;;;;;22.60;16.45;;;;;;;;;;4968225;28;20397;-70
2023/09/12 04:53:51;;;;;;;24.30;16.40;;;;;;;;;;4993328;28;20054;-70
2023/09/12 04:56:19;;;;;;;24.67;16.33;;;;;;;;;;4985015;28;20052;-70
2023/09/12 04:58:51;;;;;;;24.27;17.80;;;;;;;;;;4985632;28;20037;-70
2023/09/12 05:01:19;;;;;;;27.43;16.97;;;;;;;;;;4994502;28;20544;-70
2023/09/12 05:03:49;;;;;;;21.70;16.30;;;;;;;;;;4994396;28;20498;-69
2023/09/12 05:06:27;;;;;;;21.33;15.98;;;;;;;;;;4993106;28;20049;-70
2023/09/12 05:08:59;;;;;;;24.58;18.23;;;;;;;;;;4988397;28;20045;-72
2023/09/12 05:11:25;;;;;;;23.63;17.90;;;;;;;;;;4995837;28;20045;-69
2023/09/12 05:13:53;;;;;;;25.98;17.55;;;;;;;;;;5012527;28;20109;-70
2023/09/12 05:16:22;;;;;;;24.70;17.42;;;;;;;;;;4989880;28;20052;-70
2023/09/12 05:18:51;;;;;;;26.80;18.80;;;;;;;;;;5001994;28;20069;-71
2023/09/12 05:21:17;;;;;;;26.63;18.83;;;;;;;;;;4975888;28;20073;-70
2023/09/12 05:23:43;;;;;;;24.38;18.35;;;;;;;;;;4996100;28;20231;-70
2023/09/12 05:26:19;;;;;;;30.17;20.38;;;;;;;;;;4995418;28;20045;-70
2023/09/12 05:28:48;;;;;;;27.10;19.70;;;;;;;;;;4994620;28;20038;-70
2023/09/12 05:31:17;;;;;;;31.70;21.52;;;;;;;;;;4987227;28;20049;-70
2023/09/12 05:33:46;;;;;;;31.95;22.13;;;;;;;;;;4995649;28;20125;-70
2023/09/12 05:36:25;;;;;;;32.20;22.92;;;;;;;;;;5011206;28;20061;-70
2023/09/12 05:38:54;;;;;;;29.67;20.70;;;;;;;;;;5013175;28;20092;-69
2023/09/12 05:41:27;;;;;;;27.90;19.48;;;;;;;;;;4988600;28;20703;-69
2023/09/12 05:43:55;;;;;;;24.07;17.77;;;;;;;;;;5005647;28;20084;-70
2023/09/12 05:46:36;;;;;;;23.57;17.13;;;;;;;;;;5005461;28;20357;-70
2023/09/12 05:49:04;;;;;;;18.20;14.63;;;;;;;;;;5010798;28;20041;-69
2023/09/12 05:51:30;;;;;;;19.63;14.48;;;;;;;;;;4997370;28;20068;-70
2023/09/12 05:54:01;;;;;;;18.33;14.82;;;;;;;;;;4998405;28;20124;-70
2023/09/12 05:56:28;;;;;;;19.63;15.05;;;;;;;;;;4990541;28;20053;-71
2023/09/12 05:59:01;;;;;;;18.55;15.07;;;;;;;;;;4995771;28;20513;-71
2023/09/12 06:01:29;;;;;;;19.13;14.27;;;;;;;;;;4996052;28;20049;-71
2023/09/12 06:03:56;;;;;;;18.20;13.68;;;;;;;;;;4983731;28;20099;-71
2023/09/12 06:06:26;;;;;;;18.52;14.38;;;;;;;;;;4939497;28;20049;-71
2023/09/12 06:08:53;;;;;;;15.13;12.52;;;;;;;;;;4958940;28;20046;-71
2023/09/12 06:11:21;;;;;;;14.80;11.98;;;;;;;;;;4942838;28;20054;-71
2023/09/12 06:13:55;;;;;;;14.60;11.52;;;;;;;;;;4954230;28;20057;-71
2023/09/12 06:16:24;;;;;;;18.25;12.40;;;;;;;;;;4946108;28;20046;-71
2023/09/12 06:18:53;;;;;;;17.17;12.68;;;;;;;;;;4960805;28;20710;-71
2023/09/12 06:21:22;;;;;;;15.45;12.48;;;;;;;;;;4959064;28;20093;-70
2023/09/12 06:24:28;;;;;;;19.55;11.90;;;;;;;;;;4955124;28;20049;-70
2023/09/12 06:26:54;;;;;;;13.95;10.85;;;;;;;;;;4923929;29;20058;-71
2023/09/12 06:29:24;;;;;;;16.60;11.70;;;;;;;;;;4940028;28;20039;-70
2023/09/12 06:31:52;;;;;;;12.25;10.73;;;;;;;;;;4973301;28;20049;-70
2023/09/12 06:34:24;;;;;;;11.93;10.60;;;;;;;;;;4995197;28;20046;-70
2023/09/12 06:36:52;;;;;;;11.05;9.18;;;;;;;;;;4953534;28;20085;-71
2023/09/12 06:39:24;;;;;;;11.73;7.85;;;;;;;;;;4954030;28;20142;-70
2023/09/12 06:41:59;;;;;;;9.60;7.63;;;;;;;;;;4946031;28;20085;-71
2023/09/12 06:44:34;;;;;;;11.43;8.73;;;;;;;;;;4954388;28;20227;-71
2023/09/12 06:47:00;;;;;;;11.85;8.88;;;;;;;;;;4954802;28;20217;-71
2023/09/12 06:49:32;;;;;;;8.55;6.88;;;;;;;;;;4954804;28;20134;-71
2023/09/12 06:52:04;;;;;;;7.18;6.25;;;;;;;;;;4938703;28;20053;-71
2023/09/12 06:54:36;;;;;;;7.13;5.97;;;;;;;;;;4944791;28;20133;-71
2023/09/12 06:57:05;;;;;;;7.38;6.30;;;;;;;;;;4953046;28;20586;-71
2023/09/12 06:59:42;;;;;;;6.35;5.65;;;;;;;;;;4945026;28;20046;-70
2023/09/12 07:02:11;;;;;;;5.78;5.20;;;;;;;;;;4974832;28;20168;-70
2023/09/12 07:04:37;;;;;;;5.85;5.35;;;;;;;;;;5000323;28;20943;-70
2023/09/12 07:07:04;;;;;;;9.25;6.18;;;;;;;;;;4997467;28;20045;-70
2023/09/12 07:09:35;;;;;;;6.30;5.70;;;;;;;;;;4988535;28;20107;-71
2023/09/12 07:12:06;;;;;;;7.90;5.53;;;;;;;;;;4996574;28;20041;-70
2023/09/12 07:14:32;;;;;;;5.97;5.15;;;;;;;;;;5002082;28;20042;-71
2023/09/12 07:17:06;;;;;;;6.15;5.55;;;;;;;;;;4996008;28;20123;-70
2023/09/12 07:19:38;;;;;;;9.57;5.00;;;;;;;;;;4996264;28;20060;-70
2023/09/12 07:22:07;;;;;;;6.30;5.47;;;;;;;;;;4988660;28;20041;-70
2023/09/12 07:24:38;;;;;;;5.30;4.88;;;;;;;;;;4996752;28;20064;-70
2023/09/12 07:27:16;;;;;;;7.32;4.97;;;;;;;;;;5000845;28;20502;-70
2023/09/12 07:29:45;;;;;;;5.50;5.00;;;;;;;;;;4987224;28;20917;-70
2023/09/12 07:32:19;;;;;;;7.43;5.28;;;;;;;;;;4965656;28;20233;-70
2023/09/12 07:34:54;;;;;;;6.75;5.00;;;;;;;;;;4955353;28;20043;-71
2023/09/12 07:37:28;;;;;;;13.15;5.28;;;;;;;;;;4927948;28;20069;-70
2023/09/12 07:39:57;;;;;;;7.40;5.60;;;;;;;;;;4954536;28;20035;-70
2023/09/12 07:42:28;;;;;;;6.32;5.10;;;;;;;;;;4926723;28;20074;-70
2023/09/12 07:44:54;;;;;;;9.50;5.43;;;;;;;;;;4947007;28;20046;-70
2023/09/12 07:47:31;;;;;;;6.30;5.00;;;;;;;;;;4944385;28;20054;-70
2023/09/12 07:49:59;;;;;;;9.90;5.25;;;;;;;;;;4945560;28;20527;-70
2023/09/12 07:52:29;;;;;;;5.25;4.75;;;;;;;;;;4937385;28;20066;-71
2023/09/12 07:55:03;;;;;;;5.35;4.75;;;;;;;;;;4937200;28;20105;-71
2023/09/12 07:57:41;;;;;;;5.85;5.30;;;;;;;;;;4944140;28;20137;-71
2023/09/12 08:00:13;;;;;;;6.25;5.10;;;;;;;;;;4997171;28;20045;-71
2023/09/12 08:02:50;;;;;;;7.80;5.43;;;;;;;;;;4991739;28;20042;-71
2023/09/12 08:05:25;;;;;;;6.30;5.10;;;;;;;;;;4949421;28;20082;-70
2023/09/12 08:07:51;;;;;;;5.65;5.05;;;;;;;;;;4956120;28;20129;-70
2023/09/12 08:10:22;;;;;;;6.47;5.18;;;;;;;;;;4957670;28;20074;-70
2023/09/12 08:12:48;;;;;;;;;;;;;;;;;;4980485;28;20062;-71
2023/09/12 08:15:16;;;;;;;9.30;5.50;;;;;;;;;;4942598;28;20308;-71
2023/09/12 08:17:53;;;;;;;13.18;5.50;;;;;;;;;;4984256;28;20046;-70
2023/09/12 08:20:25;;;;;;;11.25;5.68;;;;;;;;;;4968885;28;20046;-71
2023/09/12 08:22:57;;;;;;;7.40;5.82;;;;;;;;;;4969711;28;20034;-71
2023/09/12 08:25:33;;;;;;;13.02;5.43;;;;;;;;;;4980388;28;20137;-71
2023/09/12 08:28:03;;;;;;;14.57;5.53;;;;;;;;;;4981985;28;20050;-70
2023/09/12 08:30:34;;;;;;;8.70;4.82;;;;;;;;;;4960378;28;20046;-71
2023/09/12 08:33:08;;;;;;;12.73;5.75;;;;;;;;;;4972253;28;20042;-71
2023/09/12 08:35:43;;;;;;;6.03;4.97;;;;;;;;;;4976750;28;20570;-70
2023/09/12 08:38:11;;;;;;;10.73;5.13;;;;;;;;;;4990228;28;20496;-70
2023/09/12 08:40:44;;;;;;;8.07;5.45;;;;;;;;;;4974238;28;20563;-71
2023/09/12 08:43:23;;;;;;;9.15;5.13;;;;;;;;;;4981259;28;20422;-71
2023/09/12 08:45:50;;;;;;;8.23;5.22;;;;;;;;;;4990703;28;20074;-71
2023/09/12 08:48:18;;;;;;;10.88;5.10;;;;;;;;;;4979979;28;20503;-71
2023/09/12 08:50:56;;;;;;;6.00;4.82;;;;;;;;;;4987520;28;20147;-71
2023/09/12 08:53:45;;;;;;;8.57;4.70;;;;;;;;;;4962360;28;20117;-71
2023/09/12 08:56:13;;;;;;;7.65;4.95;;;;;;;;;;4929020;29;20169;-71
2023/09/12 08:58:47;;;;;;;4.85;4.43;;;;;;;;;;4938171;28;20086;-71
2023/09/12 09:01:27;;;;;;;7.07;5.20;;;;;;;;;;4936121;28;20125;-71
2023/09/12 09:03:54;;;;;;;11.60;4.80;;;;;;;;;;4928740;28;20047;-71
2023/09/12 09:06:30;;;;;;;6.82;5.30;;;;;;;;;;4892088;28;20444;-71
2023/09/12 09:09:05;;;;;;;7.68;5.28;;;;;;;;;;4893407;29;20082;-71
2023/09/12 09:11:31;;;;;;;6.15;4.97;;;;;;;;;;4922197;28;20047;-70
2023/09/12 09:13:57;;;;;;;5.30;4.80;;;;;;;;;;4939923;28;20050;-70
2023/09/12 09:16:23;;;;;;;5.25;4.43;;;;;;;;;;4939185;28;20051;-70
2023/09/12 09:18:55;;;;;;;5.05;4.55;;;;;;;;;;4938547;28;20070;-70
2023/09/12 09:21:26;;;;;;;8.93;5.72;;;;;;;;;;4997058;28;20069;-70
2023/09/12 09:23:53;;;;;;;5.47;4.88;;;;;;;;;;4997714;28;20070;-70
2023/09/12 09:26:19;;;;;;;6.78;5.05;;;;;;;;;;4997608;28;20127;-70
2023/09/12 09:28:45;;;;;;;5.32;4.82;;;;;;;;;;4996772;28;20060;-70
2023/09/12 09:31:12;;;;;;;7.10;5.28;;;;;;;;;;4996132;28;20042;-70
2023/09/12 09:33:40;;;;;;;5.78;4.72;;;;;;;;;;4998051;28;20038;-70
2023/09/12 09:36:07;;;;;;;7.47;5.15;;;;;;;;;;4999942;28;20049;-70
2023/09/12 09:38:35;;;;;;;6.45;4.50;;;;;;;;;;4999246;28;20057;-70
2023/09/12 09:41:04;;;;;;;4.97;4.47;;;;;;;;;;4998778;28;20037;-70
2023/09/12 09:43:31;;;;;;;7.20;4.78;;;;;;;;;;5000226;28;20057;-70
2023/09/12 09:45:57;;;;;;;5.53;4.88;;;;;;;;;;5014818;28;20084;-70
2023/09/12 09:48:26;;;;;;;8.80;4.70;;;;;;;;;;5009682;28;20101;-69
2023/09/12 09:50:53;;;;;;;6.25;5.05;;;;;;;;;;4996615;28;20052;-70
2023/09/12 09:53:32;;;;;;;6.15;5.55;;;;;;;;;;4996741;28;20168;-70
2023/09/12 09:56:14;;;;;;;5.20;4.75;;;;;;;;;;4997688;28;20142;-70
2023/09/12 09:58:52;;;;;;;5.93;5.10;;;;;;;;;;4997677;28;20044;-70
2023/09/12 10:01:19;;;;;;;6.78;5.22;;;;;;;;;;4997188;28;20522;-70
2023/09/12 10:03:50;;;;;;;6.07;5.47;;;;;;;;;;4996168;28;20057;-71
2023/09/12 10:06:19;;;;;;;5.82;5.20;;;;;;;;;;4998711;28;20046;-70
2023/09/12 10:08:50;;;;;;;6.93;5.53;;;;;;;;;;4997462;28;20045;-71
2023/09/12 10:11:18;;;;;;;10.60;5.60;;;;;;;;;;4996747;28;20073;-70
2023/09/12 10:13:49;;;;;;;6.72;5.50;;;;;;;;;;4996184;28;20882;-70
2023/09/12 10:16:16;;;;;;;5.82;5.32;;;;;;;;;;4997216;28;20049;-70
2023/09/12 10:18:59;;;;;;;7.90;5.75;;;;;;;;;;4996346;28;20050;-70
2023/09/12 10:21:34;;;;;;;6.97;5.82;;;;;;;;;;5010232;28;20046;-70
2023/09/12 10:24:00;;;;;;;6.38;5.75;;;;;;;;;;5012905;28;20050;-70
2023/09/12 10:26:26;;;;;;;6.50;5.80;;;;;;;;;;4996618;28;20624;-70
2023/09/12 10:28:53;;;;;;;6.15;5.53;;;;;;;;;;4997118;28;20050;-70
2023/09/12 10:31:19;;;;;;;6.00;5.25;;;;;;;;;;4996296;28;20073;-70
2023/09/12 10:33:46;;;;;;;9.50;5.22;;;;;;;;;;4995982;28;20045;-70
2023/09/12 10:36:12;;;;;;;5.88;5.28;;;;;;;;;;4996305;28;20049;-70
2023/09/12 10:38:44;;;;;;;6.60;5.38;;;;;;;;;;4996763;28;20568;-70
2023/09/12 10:41:13;;;;;;;6.07;5.47;;;;;;;;;;4995978;28;20044;-70
2023/09/12 10:43:40;;;;;;;6.35;5.07;;;;;;;;;;4996375;28;20172;-70
2023/09/12 10:46:06;;;;;;;6.30;4.95;;;;;;;;;;4994780;28;20046;-70
2023/09/12 10:48:34;;;;;;;5.25;4.75;;;;;;;;;;4996071;28;20435;-70
2023/09/12 10:51:00;;;;;;;5.60;4.80;;;;;;;;;;4994773;28;20050;-70
2023/09/12 10:53:28;;;;;;;6.65;5.03;;;;;;;;;;4996843;28;20408;-70
2023/09/12 10:56:09;;;;;;;5.22;4.70;;;;;;;;;;4995553;28;20679;-69
2023/09/12 10:59:03;;;;;;;5.50;5.00;;;;;;;;;;4995393;28;20076;-71
2023/09/12 11:01:30;;;;;;;5.68;5.15;;;;;;;;;;4993827;28;20069;-70
2023/09/12 11:03:55;;;;;;;5.32;4.82;;;;;;;;;;4995318;28;20111;-69
2023/09/12 11:06:23;;;;;;;7.05;5.30;;;;;;;;;;5010561;28;20049;-70
2023/09/12 11:09:22;;;;;;;6.05;5.03;;;;;;;;;;5009558;28;20149;-70
2023/09/12 11:12:35;;;;;;;5.35;4.78;;;;;;;;;;4979299;28;20053;-70
2023/09/12 11:15:06;;;;;;;7.20;5.20;;;;;;;;;;4987560;28;20053;-70
2023/09/12 11:17:38;;;;;;;5.85;5.32;;;;;;;;;;4993232;28;20508;-70
2023/09/12 11:20:10;;;;;;;5.55;4.90;;;;;;;;;;4994467;28;20469;-70
2023/09/12 11:22:36;;;;;;;5.93;4.93;;;;;;;;;;4995740;28;20491;-70
2023/09/12 11:25:02;;;;;;;5.88;5.28;;;;;;;;;;4995180;28;20584;-70
2023/09/12 11:27:51;;;;;;;5.40;4.90;;;;;;;;;;4995968;28;20517;-71
2023/09/12 11:30:31;;;;;;;6.47;3.60;;;;;;;;;;4987380;28;20495;-70
2023/09/12 11:32:57;;;;;;;7.40;4.68;;;;;;;;;;4994358;28;20072;-70
2023/09/12 11:35:27;;;;;;;5.68;4.80;;;;;;;;;;4998095;28;20554;-70
2023/09/12 11:37:55;;;;;;;5.82;4.10;;;;;;;;;;4996435;28;20080;-70
2023/09/12 11:40:33;;;;;;;5.13;4.63;;;;;;;;;;5012180;28;20073;-70
2023/09/12 11:42:58;;;;;;;5.78;4.72;;;;;;;;;;4994400;28;20057;-70
2023/09/12 11:45:24;;;;;;;5.47;4.60;;;;;;;;;;4996470;28;20107;-70
2023/09/12 11:47:49;;;;;;;5.85;4.93;;;;;;;;;;5009180;28;20045;-70
2023/09/12 11:50:29;;;;;;;7.30;4.72;;;;;;;;;;4995791;28;20050;-70
2023/09/12 11:53:10;;;;;;;5.15;4.65;;;;;;;;;;4993684;28;20053;-69
2023/09/12 11:55:44;;;;;;;6.82;4.90;;;;;;;;;;4995071;28;20115;-70
2023/09/12 11:58:11;;;;;;;5.65;5.05;;;;;;;;;;4995406;28;20057;-70
2023/09/12 12:00:37;;;;;;;10.35;5.65;;;;;;;;;;4995367;28;20053;-70
2023/09/12 12:03:04;;;;;;;5.75;5.15;;;;;;;;;;4998655;28;20069;-70
2023/09/12 12:05:29;;;;;;;5.78;5.10;;;;;;;;;;4997073;28;20056;-70
2023/09/12 12:07:55;;;;;;;9.13;5.55;;;;;;;;;;4994926;28;20049;-70
2023/09/12 12:10:20;;;;;;;8.07;5.28;;;;;;;;;;4994936;28;20457;-70
2023/09/12 12:12:46;;;;;;;7.45;6.07;;;;;;;;;;4993220;28;20042;-70
2023/09/12 12:15:12;;;;;;;7.13;5.65;;;;;;;;;;4993955;28;20911;-70
2023/09/12 12:17:40;;;;;;;7.35;5.80;;;;;;;;;;4994711;28;20476;-70
2023/09/12 12:20:10;;;;;;;8.10;5.63;;;;;;;;;;4993722;28;21032;-70
2023/09/12 12:22:37;;;;;;;6.45;5.47;;;;;;;;;;4994761;28;20050;-71
2023/09/12 12:25:07;;;;;;;6.05;5.00;;;;;;;;;;4995276;28;20092;-70
2023/09/12 12:27:34;;;;;;;6.73;5.10;;;;;;;;;;4995685;28;20421;-70
2023/09/12 12:30:00;;;;;;;5.95;5.28;;;;;;;;;;4995427;28;20379;-70
2023/09/12 12:32:25;;;;;;;7.22;5.13;;;;;;;;;;4995670;28;20126;-70
2023/09/12 12:34:51;;;;;;;7.18;5.28;;;;;;;;;;4995113;28;21034;-70
2023/09/12 12:37:16;;;;;;;7.40;5.63;;;;;;;;;;4994304;28;20157;-70
2023/09/12 12:39:43;;;;;;;6.43;5.65;;;;;;;;;;4995719;28;20149;-70
2023/09/12 12:42:09;;;;;;;6.72;4.93;;;;;;;;;;4995114;28;20445;-70
2023/09/12 12:44:36;;;;;;;6.10;4.93;;;;;;;;;;4996126;28;20502;-70
2023/09/12 12:47:05;;;;;;;6.03;4.82;;;;;;;;;;4992997;28;20046;-70
2023/09/12 12:49:38;;;;;;;9.52;5.43;;;;;;;;;;4994911;28;20474;-70
2023/09/12 12:52:04;;;;;;;5.95;5.35;;;;;;;;;;4994569;28;20050;-70
2023/09/12 12:54:32;;;;;;;7.10;5.47;;;;;;;;;;4995459;28;20088;-70
2023/09/12 12:56:58;;;;;;;12.13;4.88;;;;;;;;;;4992831;28;20525;-70
2023/09/12 12:59:23;;;;;;;5.57;5.03;;;;;;;;;;4995305;28;20046;-69
2023/09/12 13:01:50;;;;;;;7.07;5.00;;;;;;;;;;4995071;28;20046;-69
2023/09/12 13:04:16;;;;;;;5.75;5.15;;;;;;;;;;5013185;28;20402;-69
2023/09/12 13:06:42;;;;;;;8.10;5.35;;;;;;;;;;4999828;28;20054;-69
2023/09/12 13:09:08;;;;;;;9.43;4.68;;;;;;;;;;4999083;28;20045;-70
2023/09/12 13:11:34;;;;;;;5.63;4.80;;;;;;;;;;4995349;28;20510;-70
2023/09/12 13:14:00;;;;;;;5.20;4.70;;;;;;;;;;4995741;28;20053;-69
2023/09/12 13:16:26;;;;;;;5.20;4.70;;;;;;;;;;4998251;28;20136;-71
2023/09/12 13:18:51;;;;;;;6.32;5.00;;;;;;;;;;4998803;28;20057;-68
2023/09/12 13:21:16;;;;;;;8.30;5.22;;;;;;;;;;4998580;28;20054;-67
2023/09/12 13:23:42;;;;;;;10.45;4.95;;;;;;;;;;4998828;28;20053;-67
2023/09/12 13:26:08;;;;;;;4.97;4.45;;;;;;;;;;4998675;28;20042;-67
2023/09/12 13:28:34;;;;;;;5.28;4.70;;;;;;;;;;5013989;28;20046;-67
2023/09/12 13:30:59;;;;;;;5.32;4.60;;;;;;;;;;4997476;28;20034;-68
2023/09/12 13:33:25;;;;;;;10.10;5.22;;;;;;;;;;4998632;28;20104;-67
2023/09/12 13:35:51;;;;;;;6.20;4.97;;;;;;;;;;4994685;28;20411;-67
2023/09/12 13:38:18;;;;;;;5.13;4.53;;;;;;;;;;4996442;28;20045;-67
2023/09/12 13:40:45;;;;;;;5.35;4.63;;;;;;;;;;4999514;28;20057;-68
2023/09/12 13:43:11;;;;;;;7.10;4.75;;;;;;;;;;4998625;28;20680;-69
2023/09/12 13:45:37;;;;;;;6.20;5.20;;;;;;;;;;5002528;28;20141;-69
2023/09/12 13:48:03;;;;;;;5.72;5.03;;;;;;;;;;4999824;28;20074;-68
2023/09/12 13:50:29;;;;;;;7.38;4.97;;;;;;;;;;4999480;28;20034;-68
2023/09/12 13:52:55;;;;;;;5.70;4.63;;;;;;;;;;4998913;28;20671;-68
2023/09/12 13:55:22;;;;;;;5.47;4.75;;;;;;;;;;4997621;28;20050;-68
2023/09/12 13:57:47;;;;;;;6.30;4.93;;;;;;;;;;4998401;28;20104;-68
2023/09/12 14:00:13;;;;;;;5.25;4.75;;;;;;;;;;4997965;28;20038;-68
2023/09/12 14:02:38;;;;;;;6.40;4.78;;;;;;;;;;4998868;28;20450;-68
2023/09/12 14:05:04;;;;;;;7.07;5.07;;;;;;;;;;4997011;28;20429;-68
2023/09/12 14:07:29;;;;;;;5.25;4.75;;;;;;;;;;4998672;28;20050;-68
2023/09/12 14:09:57;;;;;;;5.45;4.95;;;;;;;;;;4998398;28;20042;-68
2023/09/12 14:12:23;;;;;;;7.15;5.05;;;;;;;;;;4998798;28;20517;-68
2023/09/12 14:14:49;;;;;;;8.45;5.00;;;;;;;;;;4998980;28;20065;-68
2023/09/12 14:17:14;;;;;;;7.72;4.47;;;;;;;;;;4996940;28;20054;-68
2023/09/12 14:19:40;;;;;;;5.63;5.05;;;;;;;;;;4997287;28;20050;-68
2023/09/12 14:22:05;;;;;;;5.68;4.97;;;;;;;;;;4998446;28;20145;-68
2023/09/12 14:24:31;;;;;;;7.07;4.95;;;;;;;;;;4998765;28;20050;-68
2023/09/12 14:26:56;;;;;;;5.30;4.78;;;;;;;;;;4997114;28;20054;-69
2023/09/12 14:29:22;;;;;;;5.22;4.65;;;;;;;;;;4998573;28;20045;-69
2023/09/12 14:31:52;;;;;;;6.80;4.90;;;;;;;;;;4999089;28;20108;-69
2023/09/12 14:34:18;;;;;;;5.30;4.80;;;;;;;;;;4998726;28;20136;-69
2023/09/12 14:36:45;;;;;;;5.70;5.00;;;;;;;;;;4998677;28;20052;-69
2023/09/12 14:39:11;;;;;;;5.72;4.95;;;;;;;;;;4996928;28;20058;-68
2023/09/12 14:41:37;;;;;;;6.53;5.00;;;;;;;;;;4999010;28;20053;-69